M I D A S
Marine Information and Data Acquisition System
Tripno 1716 of the Zeeleeuw from 2009-06-25 07:14:08 to 2009-06-25 13:53:43
Back to CruiseResearch ActivitiesStationsMapUnderway DataData graphs

EquipmentUnitsComment
TimeDGPSUTC
LatitudeDGPSDM.mWGS84
LongitudeDGPSDM.mWGS84
HeadingGyrodeg 
SOGDGPSknotsSpeed over ground
COGDGPSdegCourse over ground
DepthEcho soundermeters200 kHz
Missing or incorrect values are displayed as -999
Navigation data collected by the RV Zeeleeuw from 2009-06-25 07:08:44 to 2009-06-25 14:03:05
Time Latitude Longitude Heading SOG COG Depth
2009-06-25 07:09:53 51°13.678 2°55.907 114.7 2.7 297 -999
2009-06-25 07:10:52 51°13.694 2°55.825 101.7 3.5 283 -999
2009-06-25 07:11:52 51°13.702 2°55.752 88 0.9 291 11.8
2009-06-25 07:12:50 51°13.707 2°55.752 33.2 0.8 225 12
2009-06-25 07:13:52 51°13.721 2°55.734 341.1 2.8 335 11
2009-06-25 07:14:50 51°13.785 2°55.677 333.7 5.9 331 8.7
2009-06-25 07:15:49 51°13.888 2°55.595 335.3 8 332 9.5
2009-06-25 07:16:49 51°14.016 2°55.49 336.1 8.9 335 8.9
2009-06-25 07:17:49 51°14.155 2°55.38 334.6 9.7 331 9.2
2009-06-25 07:18:49 51°14.28 2°55.209 315.4 10.1 313 9
2009-06-25 07:19:49 51°14.399 2°54.995 318.3 11.3 317 8.9
2009-06-25 07:20:49 51°14.546 2°54.791 327.5 11.8 317 8.9
2009-06-25 07:21:49 51°14.68 2°54.564 320.6 11.9 311 8.7
2009-06-25 07:22:49 51°14.805 2°54.319 317.4 11.9 308 8.7
2009-06-25 07:23:49 51°14.926 2°54.073 314.8 11.7 307 8.2
2009-06-25 07:24:49 51°15.041 2°53.824 314.4 11.6 307 8.3
2009-06-25 07:25:49 51°15.157 2°53.576 314.9 11.7 307 8.6
2009-06-25 07:26:49 51°15.275 2°53.325 315.1 11.9 306 8.8
2009-06-25 07:27:49 51°15.394 2°53.07 314.8 12 306 9.3
2009-06-25 07:28:49 51°15.523 2°52.836 329.6 11.4 322 9.8
2009-06-25 07:29:49 51°15.691 2°52.755 5.9 10.4 357 10.1
2009-06-25 07:30:49 51°15.866 2°52.728 1.8 10.9 351 10.7
2009-06-25 07:31:49 51°16.046 2°52.673 358 11 348 11
2009-06-25 07:32:49 51°16.225 2°52.607 355.2 11.1 345 10.7
2009-06-25 07:33:49 51°16.404 2°52.536 355.2 11.1 346 10.6
2009-06-25 07:34:49 51°16.584 2°52.471 357 11.1 347 10
2009-06-25 07:35:49 51°16.764 2°52.425 0.5 10.8 353 9
2009-06-25 07:36:49 51°16.938 2°52.407 8.8 10.4 2 8.3
2009-06-25 07:37:49 51°17.11 2°52.425 11.1 10.4 4 8.6
2009-06-25 07:38:49 51°17.283 2°52.431 10.3 10.3 3 9
2009-06-25 07:39:49 51°17.455 2°52.443 10.5 10.3 3 9.3
2009-06-25 07:40:49 51°17.627 2°52.455 10.7 10.3 3 9.2
2009-06-25 07:41:49 51°17.799 2°52.468 10.3 10.3 3 8.9
2009-06-25 07:42:49 51°17.968 2°52.501 15.6 10.3 9 9.1
2009-06-25 07:43:49 51°18.126 2°52.586 30.8 10 26 9.4
2009-06-25 07:44:49 51°18.246 2°52.755 53.8 9.5 52 9.6
2009-06-25 07:45:49 51°18.328 2°52.976 65.7 9.7 70 10
2009-06-25 07:46:49 51°18.358 2°53.23 81.1 9.9 83 9.5
2009-06-25 07:47:49 51°18.385 2°53.486 75.6 9.7 78 9.5
2009-06-25 07:48:49 51°18.431 2°53.735 71.9 9.8 72 9.4
2009-06-25 07:49:49 51°18.481 2°53.981 71.4 9.7 71 9.5
2009-06-25 07:50:49 51°18.534 2°54.224 70.7 9.7 70 9.2
2009-06-25 07:51:49 51°18.586 2°54.468 71 9.7 72 9.4
2009-06-25 07:52:49 51°18.639 2°54.711 71.1 9.8 71 9.5
2009-06-25 07:53:49 51°18.698 2°54.952 66.1 9.7 66 9.6
2009-06-25 07:54:49 51°18.768 2°55.186 65.5 9.8 65 9.3
2009-06-25 07:55:49 51°18.841 2°55.418 63.5 9.7 63 9.5
2009-06-25 07:56:49 51°18.913 2°55.646 64.4 9.6 63 9.1
2009-06-25 07:57:49 51°18.981 2°55.879 66.7 9.7 66 9.1
2009-06-25 07:58:49 51°19.049 2°56.114 66.2 9.8 65 9.2
2009-06-25 07:59:49 51°19.118 2°56.347 65.9 9.7 66 9.1
2009-06-25 08:00:49 51°19.186 2°56.582 65.6 9.7 66 9.1
2009-06-25 08:01:49 51°19.253 2°56.818 65.9 9.8 66 8.8
2009-06-25 08:02:49 51°19.32 2°57.052 65.5 9.4 65 8.6
2009-06-25 08:03:49 51°19.387 2°57.285 65.1 9.7 65 8.6
2009-06-25 08:04:49 51°19.455 2°57.517 65.6 9.7 66 8.9
2009-06-25 08:05:49 51°19.526 2°57.747 63.9 9.6 64 8.7
2009-06-25 08:06:49 51°19.594 2°57.977 64.4 9.5 63 8.4
2009-06-25 08:07:49 51°19.665 2°58.204 64.6 9.6 64 8.4
2009-06-25 08:08:49 51°19.733 2°58.433 65 9.6 65 8.2
2009-06-25 08:09:49 51°19.8 2°58.664 65.4 9.6 64 8.2
2009-06-25 08:10:49 51°19.866 2°58.896 64.7 9.6 66 8.4
2009-06-25 08:11:49 51°19.931 2°59.127 66.9 9.6 66 8.4
2009-06-25 08:12:49 51°19.997 2°59.359 65.7 9.5 64 8
2009-06-25 08:13:49 51°20.066 2°59.586 65.8 9.5 65 8.3
2009-06-25 08:14:49 51°20.132 2°59.815 65.4 9.5 64 8.3
2009-06-25 08:15:49 51°20.202 3°0.041 64.7 9.5 65 8.3
2009-06-25 08:16:49 51°20.269 3°0.271 66.1 9.6 65 8.5
2009-06-25 08:17:49 51°20.337 3°0.5 64.5 9.4 64 8.4
2009-06-25 08:18:49 51°20.405 3°0.727 66 9.5 66 8.5
2009-06-25 08:19:49 51°20.471 3°0.953 64.1 9.4 63 8.5
2009-06-25 08:20:49 51°20.538 3°1.18 66.1 9.5 66 8.5
2009-06-25 08:21:49 51°20.592 3°1.416 76.3 9.3 79 8.4
2009-06-25 08:22:49 51°20.611 3°1.665 80.7 9.5 84 8.5
2009-06-25 08:23:49 51°20.623 3°1.918 82.8 9.6 86 8.3
2009-06-25 08:24:49 51°20.64 3°2.17 80.5 9.5 82 7.9
2009-06-25 08:25:49 51°20.66 3°2.421 79.8 9.5 83 8
2009-06-25 08:26:49 51°20.68 3°2.672 80.8 9.6 84 7.9
2009-06-25 08:27:49 51°20.698 3°2.922 81.2 9.5 84 7.6
2009-06-25 08:28:49 51°20.712 3°3.171 81.9 9.4 87 7.4
2009-06-25 08:29:49 51°20.74 3°3.416 75.2 9.3 77 7.7
2009-06-25 08:30:49 51°20.774 3°3.657 74.8 9.3 77 7.7
2009-06-25 08:31:49 51°20.808 3°3.899 73.8 9.4 78 7.9
2009-06-25 08:32:49 51°20.842 3°4.146 75.6 9.5 78 7.7
2009-06-25 08:33:49 51°20.876 3°4.394 74.1 9.5 77 7.7
2009-06-25 08:34:49 51°20.912 3°4.641 74.6 9.5 77 7.7
2009-06-25 08:35:49 51°20.948 3°4.891 75.1 9.8 76 5.5
2009-06-25 08:36:49 51°20.98 3°5.143 75.5 9.7 81 7.4
2009-06-25 08:37:49 51°21.013 3°5.393 73.6 9.6 76 7.4
2009-06-25 08:38:49 51°21.049 3°5.644 75.4 9.7 76 7.6
2009-06-25 08:39:49 51°21.081 3°5.894 77.2 9.6 80 5.7
2009-06-25 08:40:49 51°21.102 3°6.147 79.1 9.6 80 7.5
2009-06-25 08:41:49 51°21.123 3°6.402 79.2 9.8 85 7.5
2009-06-25 08:42:49 51°21.148 3°6.656 79.5 9.7 82 7.6
2009-06-25 08:43:49 51°21.175 3°6.909 77 9.7 76 7.3
2009-06-25 08:44:49 51°21.218 3°7.155 70.8 9.6 69 7.5
2009-06-25 08:45:49 51°21.271 3°7.398 70.7 9.8 71 7.8
2009-06-25 08:46:49 51°21.325 3°7.64 70.5 9.7 70 7.9
2009-06-25 08:47:49 51°21.382 3°7.878 69 9.6 67 7.9
2009-06-25 08:48:49 51°21.436 3°8.116 69.5 9.6 71 8.4
2009-06-25 08:49:49 51°21.488 3°8.359 70.4 9.7 70 8.4
2009-06-25 08:50:49 51°21.534 3°8.566 71 5.8 74 8.7
2009-06-25 08:51:49 51°21.569 3°8.626 22 2.8 352 8.8
2009-06-25 08:52:49 51°21.618 3°8.552 325.6 5.4 301 9.3
2009-06-25 08:53:49 51°21.662 3°8.425 327.4 4.7 304 9.5
2009-06-25 08:54:49 51°21.706 3°8.349 353.6 3.5 324 9.8
2009-06-25 08:55:49 51°21.761 3°8.312 8.4 3.8 343 9.8
2009-06-25 08:56:49 51°21.824 3°8.283 8.2 4 346 10.3
2009-06-25 08:57:49 51°21.887 3°8.262 2.9 4.1 341 10.4
2009-06-25 08:58:49 51°21.951 3°8.229 11.7 3.7 351 10.6
2009-06-25 08:59:49 51°22.005 3°8.242 37.6 3.2 23 10.5
2009-06-25 09:00:49 51°22.05 3°8.287 48 3.4 40 10.9
2009-06-25 09:01:49 51°22.088 3°8.359 62.8 3.6 62 10.7
2009-06-25 09:02:49 51°22.098 3°8.455 82.1 3.8 91 11.2
2009-06-25 09:03:49 51°22.09 3°8.559 91.7 4 106 11.1
2009-06-25 09:04:49 51°22.056 3°8.655 112.8 4.2 133 11.1
2009-06-25 09:05:49 51°21.998 3°8.723 129 4.5 150 11
2009-06-25 09:06:49 51°21.927 3°8.766 142.8 4.6 167 10.7
2009-06-25 09:07:49 51°21.852 3°8.782 155.8 4.5 178 10.3
2009-06-25 09:08:49 51°21.775 3°8.769 175.4 4.6 195 10.2
2009-06-25 09:09:49 51°21.707 3°8.719 195.5 4.5 210 9.6
2009-06-25 09:10:49 51°21.647 3°8.649 211.5 4.4 221 9.3
2009-06-25 09:11:49 51°21.599 3°8.57 225 3.9 229 9.1
2009-06-25 09:12:49 51°21.561 3°8.489 237.6 3.7 236 8.9
2009-06-25 09:13:49 51°21.531 3°8.404 250.5 3.7 245 8.8
2009-06-25 09:14:49 51°21.507 3°8.314 261.7 3.7 250 9
2009-06-25 09:15:49 51°21.483 3°8.216 256.3 4.1 247 8.7
2009-06-25 09:16:49 51°21.451 3°8.119 242.5 4.3 240 8.8
2009-06-25 09:17:49 51°21.413 3°8.022 236.2 4.3 237 8.6
2009-06-25 09:18:49 51°21.373 3°7.926 241.1 4.3 239 8.3
2009-06-25 09:19:49 51°21.34 3°7.823 255.3 4.3 248 8.2
2009-06-25 09:20:49 51°21.319 3°7.716 272.3 3.9 259 8.1
2009-06-25 09:21:49 51°21.311 3°7.619 288.4 3.5 264 8.4
2009-06-25 09:22:49 51°21.307 3°7.529 291.4 3.5 269 8.3
2009-06-25 09:23:49 51°21.316 3°7.438 324.7 3 292 8.7
2009-06-25 09:24:49 51°21.341 3°7.389 11 1.8 331 8.6
2009-06-25 09:25:49 51°21.36 3°7.39 51.4 0.8 34 8.9
2009-06-25 09:26:49 51°21.366 3°7.404 57.5 0.6 59 8.7
2009-06-25 09:27:49 51°21.372 3°7.416 50.6 0.6 40 8.9
2009-06-25 09:28:49 51°21.381 3°7.423 48.4 0.6 24 9
2009-06-25 09:29:49 51°21.393 3°7.441 52.7 2.1 49 9
2009-06-25 09:30:49 51°21.455 3°7.562 53.3 8.7 51 9.2
2009-06-25 09:31:49 51°21.555 3°7.758 53.2 9.8 51 9.4
2009-06-25 09:32:49 51°21.65 3°7.97 61.7 9.8 60 9.6
2009-06-25 09:33:49 51°21.725 3°8.199 64.8 9.7 64 10.1
2009-06-25 09:34:49 51°21.811 3°8.418 56.2 9.7 46 10.2
2009-06-25 09:35:49 51°21.938 3°8.578 39.5 9.9 34 10.7
2009-06-25 09:36:49 51°22.072 3°8.736 42.7 10.1 39 11.3
2009-06-25 09:37:49 51°22.199 3°8.913 47.9 10.1 46 11.2
2009-06-25 09:38:49 51°22.312 3°9.109 51.5 10 51 12.1
2009-06-25 09:39:49 51°22.406 3°9.326 59.9 10.1 60 12.3
2009-06-25 09:40:49 51°22.483 3°9.565 66.1 10.1 66 12.6
2009-06-25 09:41:49 51°22.553 3°9.813 66.1 10.3 66 12.5
2009-06-25 09:42:49 51°22.621 3°10.062 69.8 10.3 69 17.6
2009-06-25 09:43:49 51°22.667 3°10.324 78 10.2 79 14.7
2009-06-25 09:44:49 51°22.692 3°10.591 82 10.1 83 13.7
2009-06-25 09:45:49 51°22.716 3°10.854 81.1 10 80 13.6
2009-06-25 09:46:49 51°22.735 3°11.118 85.3 10 90 13.5
2009-06-25 09:47:49 51°22.727 3°11.384 90.4 10 89 13.3
2009-06-25 09:48:49 51°22.719 3°11.648 88 9.9 91 13.2
2009-06-25 09:49:49 51°22.725 3°11.912 85.4 10 90 13.2
2009-06-25 09:50:49 51°22.737 3°12.175 83.2 9.9 85 13
2009-06-25 09:51:49 51°22.767 3°12.431 73.8 9.8 75 12.3
2009-06-25 09:52:49 51°22.829 3°12.676 69.6 10 67 11.7
2009-06-25 09:53:49 51°22.893 3°12.922 69.3 10 67 11
2009-06-25 09:54:49 51°22.955 3°13.171 69.6 10 68 10.6
2009-06-25 09:55:49 51°23.019 3°13.418 68.3 10 67 10
2009-06-25 09:56:49 51°23.081 3°13.668 69.7 10.1 69 9.6
2009-06-25 09:57:49 51°23.143 3°13.917 70.5 10.1 70 9.1
2009-06-25 09:58:49 51°23.202 3°14.169 71.2 10.1 70 8.8
2009-06-25 09:59:49 51°23.258 3°14.422 71.2 10 70 8.5
2009-06-25 10:00:49 51°23.315 3°14.671 70.7 10.1 69 8.2
2009-06-25 10:01:49 51°23.374 3°14.924 69.8 10.2 68 8
2009-06-25 10:02:49 51°23.437 3°15.177 69 10.2 68 8.5
2009-06-25 10:03:49 51°23.501 3°15.429 69.4 10.2 69 9
2009-06-25 10:04:49 51°23.56 3°15.682 71.1 10.2 71 9.5
2009-06-25 10:05:49 51°23.622 3°15.938 70 10.4 69 10
2009-06-25 10:06:49 51°23.629 3°16.209 99.9 10.5 105 9.9
2009-06-25 10:07:49 51°23.571 3°16.474 109.2 10.6 109 9.6
2009-06-25 10:08:49 51°23.507 3°16.734 108.5 10.6 110 9.3
2009-06-25 10:09:49 51°23.463 3°17.006 99.3 10.6 100 9.3
2009-06-25 10:10:49 51°23.432 3°17.286 99.3 10.8 99 9.3
2009-06-25 10:11:49 51°23.398 3°17.567 100.5 10.6 99 8.7
2009-06-25 10:12:49 51°23.411 3°17.837 69.8 10.4 63 9.1
2009-06-25 10:13:49 51°23.506 3°18.076 58.9 10.7 56 9.6
2009-06-25 10:14:49 51°23.585 3°18.33 71.2 10.7 70 9.8
2009-06-25 10:15:49 51°23.633 3°18.605 76.7 10.8 76 10.2
2009-06-25 10:16:49 51°23.679 3°18.883 76 10.9 75 10.5
2009-06-25 10:17:49 51°23.723 3°19.164 76.8 11 74 11.1
2009-06-25 10:18:49 51°23.769 3°19.448 76.2 11 75 11.7
2009-06-25 10:19:49 51°23.82 3°19.731 74 11.1 73 12.3
2009-06-25 10:20:49 51°23.874 3°20.014 74 11.2 73 12.8
2009-06-25 10:21:49 51°23.926 3°20.302 74 11.2 72 13.3
2009-06-25 10:22:49 51°24.033 3°20.535 41.1 11.2 38 14.2
2009-06-25 10:23:49 51°24.195 3°20.69 33.5 11.4 29 16.5
2009-06-25 10:24:49 51°24.355 3°20.855 36.2 11.5 33 18.1
2009-06-25 10:25:49 51°24.512 3°21.029 37.2 11.4 37 18.1
2009-06-25 10:26:49 51°24.662 3°21.218 39.3 11.5 39 14.2
2009-06-25 10:27:49 51°24.812 3°21.411 39.4 11.5 38 13.3
2009-06-25 10:28:49 51°24.961 3°21.603 38.3 11.4 38 11.4
2009-06-25 10:29:49 51°25.112 3°21.791 37.8 11.4 37 8.9
2009-06-25 10:30:49 51°25.215 3°22.025 76 10.5 80 9.4
2009-06-25 10:31:49 51°25.17 3°22.265 133.3 9.3 140 8.7
2009-06-25 10:32:49 51°25.037 3°22.251 223.6 8.4 227 11
2009-06-25 10:33:49 51°24.96 3°22.019 248.3 11 247 11.9
2009-06-25 10:34:49 51°24.906 3°21.736 253.5 11.3 251 12.7
2009-06-25 10:35:49 51°24.82 3°21.466 242 11.5 240 13.5
2009-06-25 10:36:49 51°24.723 3°21.205 244.3 11.4 243 13.6
2009-06-25 10:37:49 51°24.648 3°20.929 251.7 11.3 250 14.4
2009-06-25 10:38:49 51°24.592 3°20.644 256.3 11.2 255 15.2
2009-06-25 10:39:49 51°24.545 3°20.353 257 11.3 255 16.8
2009-06-25 10:40:49 51°24.509 3°20.056 263.3 11.3 262 17.4
2009-06-25 10:41:49 51°24.496 3°19.754 270 11.5 268 17.5
2009-06-25 10:42:49 51°24.498 3°19.45 273.9 11.4 273 17.2
2009-06-25 10:43:49 51°24.51 3°19.145 274.8 11.4 273 17.2
2009-06-25 10:44:49 51°24.521 3°18.839 274.8 11.6 273 17.3
2009-06-25 10:45:49 51°24.539 3°18.534 279.2 11.4 279 17.5
2009-06-25 10:46:49 51°24.577 3°18.238 285.2 11.4 283 17
2009-06-25 10:47:49 51°24.623 3°17.942 286.1 11.5 284 17.1
2009-06-25 10:48:49 51°24.67 3°17.644 286.6 11.6 286 16.7
2009-06-25 10:49:49 51°24.725 3°17.348 289.6 11.5 288 16.8
2009-06-25 10:50:49 51°24.779 3°17.056 289.7 11.4 287 15.8
2009-06-25 10:51:49 51°24.831 3°16.764 288.2 11.5 287 15.5
2009-06-25 10:52:49 51°24.883 3°16.469 289.1 11.4 286 15.2
2009-06-25 10:53:49 51°24.936 3°16.184 289.8 11.1 287 14.4
2009-06-25 10:54:49 51°24.99 3°15.899 290.4 11.2 286 14.6
2009-06-25 10:55:49 51°25.041 3°15.613 290.2 11.2 286 15
2009-06-25 10:56:49 51°25.096 3°15.327 290.1 11.3 286 14.1
2009-06-25 10:57:49 51°25.146 3°15.038 291.1 11.3 286 13.5
2009-06-25 10:58:49 51°25.194 3°14.749 287.8 11.1 283 12.4
2009-06-25 10:59:49 51°25.23 3°14.455 284.8 11.3 280 12
2009-06-25 11:00:49 51°25.255 3°14.158 283.1 11.3 276 11.6
2009-06-25 11:01:49 51°25.271 3°13.86 279.4 11.3 274 11
2009-06-25 11:02:49 51°25.283 3°13.561 279.8 11.2 274 10.8
2009-06-25 11:03:49 51°25.295 3°13.263 279.2 11.2 274 10.6
2009-06-25 11:04:49 51°25.308 3°12.965 279.7 11.2 273 10.3
2009-06-25 11:05:49 51°25.321 3°12.667 280.2 11.2 274 10.3
2009-06-25 11:06:49 51°25.334 3°12.37 280.6 11.1 275 9.8
2009-06-25 11:07:49 51°25.345 3°12.073 280.3 11.2 274 9.9
2009-06-25 11:08:49 51°25.351 3°11.775 273.4 11.3 266 9.5
2009-06-25 11:09:49 51°25.329 3°11.474 265.9 11.5 257 9.6
2009-06-25 11:10:49 51°25.276 3°11.178 259.5 11.6 252 9.2
2009-06-25 11:11:49 51°25.216 3°10.884 258.6 11.7 251 8.7
2009-06-25 11:12:49 51°25.151 3°10.59 255.1 11.8 249 8.2
2009-06-25 11:13:49 51°25.076 3°10.302 253.1 11.8 246 8.1
2009-06-25 11:14:49 51°25.002 3°10.013 254 11.7 249 7.9
2009-06-25 11:15:49 51°24.93 3°9.723 254.5 11.7 249 8.1
2009-06-25 11:16:49 51°24.862 3°9.43 255.6 11.8 250 8.5
2009-06-25 11:17:49 51°24.808 3°9.131 263.4 11.7 259 9
2009-06-25 11:18:49 51°24.786 3°8.825 273.8 11.6 270 9
2009-06-25 11:19:49 51°24.786 3°8.517 275.9 11.6 270 9.2
2009-06-25 11:20:49 51°24.785 3°8.207 277.1 11.7 270 9.7
2009-06-25 11:21:49 51°24.782 3°7.894 275.4 11.7 268 10.2
2009-06-25 11:22:49 51°24.778 3°7.582 274.3 11.8 268 10.3
2009-06-25 11:23:49 51°24.772 3°7.268 273.8 11.8 270 10.7
2009-06-25 11:24:49 51°24.765 3°6.951 275.4 12.1 267 11.2
2009-06-25 11:25:49 51°24.755 3°6.633 273.7 11.9 267 11.3
2009-06-25 11:26:49 51°24.746 3°6.318 273.9 11.9 267 12.2
2009-06-25 11:27:49 51°24.753 3°6.009 289.3 11.4 284 12.4
2009-06-25 11:28:49 51°24.839 3°5.752 322.2 10.6 319 12.3
2009-06-25 11:29:49 51°24.994 3°5.644 353.7 10.3 349 12.3
2009-06-25 11:30:49 51°25.164 3°5.61 358.7 10.4 353 12.1
2009-06-25 11:31:49 51°25.334 3°5.583 -999 10.2 356 11.5
2009-06-25 11:32:49 51°25.5 3°5.597 15.2 10 13 11
2009-06-25 11:33:49 51°25.659 3°5.676 19.5 10 19 10.6
2009-06-25 11:34:49 51°25.784 3°5.842 51.1 10.1 55 10.7
2009-06-25 11:35:49 51°25.842 3°6.098 74.1 10.6 81 10.4
2009-06-25 11:36:49 51°25.858 3°6.384 79.9 10.9 86 10.2
2009-06-25 11:37:49 51°25.868 3°6.675 81.1 11 86 10.5
2009-06-25 11:38:49 51°25.893 3°6.962 74.8 10.8 82 10.2
2009-06-25 11:39:49 51°25.922 3°7.247 75.2 10.8 81 9.7
2009-06-25 11:40:49 51°25.95 3°7.534 74.8 10.8 80 9
2009-06-25 11:41:49 51°25.977 3°7.821 76 10.9 82 9.5
2009-06-25 11:42:49 51°26.005 3°8.107 75.2 11 83 9.3
2009-06-25 11:43:49 51°26.033 3°8.395 74.9 10.9 81 9.5
2009-06-25 11:44:49 51°26.06 3°8.684 75.3 11 80 9.4
2009-06-25 11:45:49 51°26.089 3°8.974 74.7 11 81 9.3
2009-06-25 11:46:49 51°26.119 3°9.264 76.1 11.1 82 9.1
2009-06-25 11:47:49 51°26.147 3°9.558 75.2 11.2 81 9
2009-06-25 11:48:49 51°26.176 3°9.853 74.9 11.1 79 9
2009-06-25 11:49:49 51°26.256 3°10.107 47.3 10.6 50 9.1
2009-06-25 11:50:49 51°26.38 3°10.303 40 10.6 43 9.3
2009-06-25 11:51:49 51°26.508 3°10.497 40.7 10.6 44 9.6
2009-06-25 11:52:50 51°26.636 3°10.703 42.5 10.7 46 9.4
2009-06-25 11:53:49 51°26.757 3°10.904 42.2 10.7 46 9.2
2009-06-25 11:54:49 51°26.879 3°11.111 42.7 10.6 46 9
2009-06-25 11:55:49 51°27 3°11.317 42 10.5 46 9.3
2009-06-25 11:56:49 51°27.12 3°11.524 42.9 10.6 47 9.2
2009-06-25 11:57:49 51°27.241 3°11.733 43.2 10.6 47 8.9
2009-06-25 11:58:49 51°27.361 3°11.942 43.6 10.6 47 9.2
2009-06-25 11:59:49 51°27.509 3°12.06 11.5 9.9 9 9.1
2009-06-25 12:00:49 51°27.66 3°11.993 330.1 10 325 9.4
2009-06-25 12:01:49 51°27.729 3°11.751 285.2 10.9 277 9.5
2009-06-25 12:02:49 51°27.722 3°11.449 271.6 11.5 262 10
2009-06-25 12:03:49 51°27.631 3°11.169 243.2 12.2 238 10.3
2009-06-25 12:04:49 51°27.533 3°10.887 250.9 12 244 10.4
2009-06-25 12:05:49 51°27.446 3°10.602 251.8 11.9 245 10.3
2009-06-25 12:06:49 51°27.359 3°10.314 249.8 12 243 11.1
2009-06-25 12:07:49 51°27.268 3°10.03 249.2 12 245 11.2
2009-06-25 12:08:49 51°27.179 3°9.742 249.6 12.1 242 11.4
2009-06-25 12:09:49 51°27.089 3°9.455 250.4 12 244 11
2009-06-25 12:10:49 51°27 3°9.168 250.3 12 244 11.1
2009-06-25 12:11:49 51°26.91 3°8.88 250.3 12.2 243 11.7
2009-06-25 12:12:49 51°26.821 3°8.59 250.4 12.1 244 12
2009-06-25 12:13:49 51°26.733 3°8.301 250.1 12.1 242 10.7
2009-06-25 12:14:49 51°26.643 3°8.014 249.9 12 245 10.6
2009-06-25 12:15:49 51°26.56 3°7.724 254.5 12 247 10.7
2009-06-25 12:16:49 51°26.491 3°7.426 255.9 11.9 249 11.2
2009-06-25 12:17:49 51°26.44 3°7.122 266.3 11.8 259 11.7
2009-06-25 12:18:49 51°26.4 3°6.814 266.1 11.9 257 11.5
2009-06-25 12:19:49 51°26.364 3°6.505 267.8 11.8 259 11.5
2009-06-25 12:20:49 51°26.323 3°6.198 265.1 11.8 259 12
2009-06-25 12:21:49 51°26.281 3°5.889 265.5 11.9 258 11.9
2009-06-25 12:22:49 51°26.238 3°5.582 264.5 11.8 258 11.6
2009-06-25 12:23:49 51°26.191 3°5.276 260.7 11.8 254 12.1
2009-06-25 12:24:49 51°26.117 3°4.981 251.9 12 244 12.5
2009-06-25 12:25:49 51°26.025 3°4.694 248.5 12.2 243 12.1
2009-06-25 12:26:49 51°25.932 3°4.407 250.5 11.9 247 12.2
2009-06-25 12:27:49 51°25.843 3°4.124 249 11.8 244 10.9
2009-06-25 12:28:49 51°25.755 3°3.843 250.3 11.8 243 10.8
2009-06-25 12:29:49 51°25.671 3°3.561 249.8 11.8 246 11.4
2009-06-25 12:30:49 51°25.587 3°3.278 249.9 11.7 242 12.2
2009-06-25 12:31:49 51°25.503 3°2.996 250.4 11.6 242 13.2
2009-06-25 12:32:49 51°25.419 3°2.715 250.9 11.7 244 14
2009-06-25 12:33:49 51°25.296 3°2.48 222.2 11.9 213 14.4
2009-06-25 12:34:49 51°25.118 3°2.339 206.2 11.9 200 15.4
2009-06-25 12:35:49 51°24.925 3°2.246 196.3 12.2 188 17
2009-06-25 12:36:49 51°24.726 3°2.201 186.7 12.1 182 20
2009-06-25 12:37:49 51°24.525 3°2.198 184.2 12.3 182 20
2009-06-25 12:38:49 51°24.323 3°2.199 183 12 181 19.1
2009-06-25 12:39:49 51°24.127 3°2.199 184.4 11.9 178 17.9
2009-06-25 12:40:49 51°23.931 3°2.196 185.3 11.8 182 17.1
2009-06-25 12:41:49 51°23.751 3°2.107 212.3 11.2 208 16.3
2009-06-25 12:42:49 51°23.593 3°1.951 221.5 11.1 216 15.6
2009-06-25 12:43:49 51°23.456 3°1.759 234.2 11 229 15.1
2009-06-25 12:44:49 51°23.349 3°1.533 239 10.6 239 14.9
2009-06-25 12:45:49 51°23.241 3°1.303 236.7 10.9 230 15
2009-06-25 12:46:49 51°23.117 3°1.09 230.2 10.9 224 15.1
2009-06-25 12:47:49 51°22.986 3°0.885 229.5 11.1 222 14.9
2009-06-25 12:48:49 51°22.855 3°0.68 229.4 11 229 14.8
2009-06-25 12:49:49 51°22.722 3°0.474 229.4 11.1 228 14.9
2009-06-25 12:50:49 51°22.592 3°0.268 229.5 11.1 223 14.4
2009-06-25 12:51:49 51°22.465 3°0.065 230.6 10.7 221 14.5
2009-06-25 12:52:49 51°22.337 2°59.869 229.2 10.6 225 14.1
2009-06-25 12:53:49 51°22.212 2°59.671 229.4 10.6 223 14.3
2009-06-25 12:54:49 51°22.084 2°59.474 229.2 10.8 220 14.3
2009-06-25 12:55:49 51°21.959 2°59.274 230.6 10.5 229 14.3
2009-06-25 12:56:49 51°21.834 2°59.073 231.6 10.7 230 14.3
2009-06-25 12:57:49 51°21.71 2°58.868 230.8 10.6 230 14.5
2009-06-25 12:58:49 51°21.587 2°58.659 231.2 10.9 228 14.6
2009-06-25 12:59:49 51°21.463 2°58.452 231.8 10.6 229 14.7
2009-06-25 13:00:49 51°21.339 2°58.246 231.8 10.6 230 14.9
2009-06-25 13:01:49 51°21.227 2°58.027 237.1 10.7 233 14.9
2009-06-25 13:02:49 51°21.119 2°57.803 236 10.6 235 14.7
2009-06-25 13:03:49 51°21.012 2°57.583 236.1 10.5 230 14.9
2009-06-25 13:04:49 51°20.904 2°57.367 236 10.4 229 15.1
2009-06-25 13:05:49 51°20.8 2°57.146 236 10.4 235 15
2009-06-25 13:06:49 51°20.694 2°56.928 235.1 10.4 231 15.1
2009-06-25 13:07:49 51°20.588 2°56.71 234.5 10.4 234 15
2009-06-25 13:08:49 51°20.481 2°56.491 236 10.5 232 15.1
2009-06-25 13:09:49 51°20.374 2°56.271 234.5 10.4 230 15.3
2009-06-25 13:10:49 51°20.269 2°56.056 234 10.1 234 15.2
2009-06-25 13:11:49 51°20.168 2°55.843 235.1 10.2 234 15.1
2009-06-25 13:12:49 51°20.066 2°55.629 234.9 10.2 235 15.3
2009-06-25 13:13:49 51°19.961 2°55.42 233.2 10.1 229 15
2009-06-25 13:14:49 51°19.852 2°55.209 234 10.1 232 15.2
2009-06-25 13:15:49 51°19.745 2°55.005 234.2 10 230 15.2
2009-06-25 13:16:49 51°19.636 2°54.797 229.7 10.2 229 15.1
2009-06-25 13:17:49 51°19.521 2°54.599 230.1 10.2 232 14.9
2009-06-25 13:18:49 51°19.408 2°54.401 230 10.2 226 14.9
2009-06-25 13:19:49 51°19.296 2°54.202 231.3 10.1 228 14.9
2009-06-25 13:20:49 51°19.184 2°54.003 230.4 10 226 14.7
2009-06-25 13:21:49 51°19.071 2°53.801 230.7 10.1 225 14.8
2009-06-25 13:22:49 51°18.961 2°53.598 229.7 10.2 231 14.6
2009-06-25 13:23:49 51°18.85 2°53.4 229.9 9.9 223 14.5
2009-06-25 13:24:49 51°18.738 2°53.203 229.6 10 226 14.5
2009-06-25 13:25:49 51°18.628 2°53.007 229.6 9.8 223 14.3
2009-06-25 13:26:49 51°18.517 2°52.806 231.5 10.1 226 14.2
2009-06-25 13:27:49 51°18.406 2°52.602 230.9 10.2 235 14
2009-06-25 13:28:49 51°18.295 2°52.404 231.3 10 227 14
2009-06-25 13:29:49 51°18.174 2°52.224 221.4 10 220 14.4
2009-06-25 13:30:49 51°18.026 2°52.091 208.8 10.5 201 13.7
2009-06-25 13:31:49 51°17.872 2°51.978 208.1 10.3 203 13.4
2009-06-25 13:32:49 51°17.712 2°51.882 203.9 10.5 196 13.3
2009-06-25 13:33:49 51°17.543 2°51.906 164.8 10.9 156 13.5
2009-06-25 13:34:49 51°17.383 2°52.062 155.1 11.7 145 13.8
2009-06-25 13:35:49 51°17.225 2°52.227 155 11.3 148 14
2009-06-25 13:36:49 51°17.064 2°52.383 157.6 11.4 152 13
2009-06-25 13:37:49 51°16.901 2°52.534 158.8 11.5 147 13
2009-06-25 13:38:49 51°16.735 2°52.677 161 11.3 153 13.2
2009-06-25 13:39:49 51°16.57 2°52.825 159.8 11.7 149 14.7
2009-06-25 13:40:49 51°16.403 2°52.967 160.4 11.3 154 14.9
2009-06-25 13:41:49 51°16.235 2°53.111 159.6 11.4 153 15.1
2009-06-25 13:42:49 51°16.067 2°53.253 161.3 11.5 151 14.9
2009-06-25 13:43:49 51°15.9 2°53.39 163.4 11.2 157 15.1
2009-06-25 13:44:49 51°15.729 2°53.509 165.1 11.4 154 14.6
2009-06-25 13:45:49 51°15.56 2°53.641 159.8 11.2 152 13.4
2009-06-25 13:46:49 51°15.393 2°53.79 157.9 11.4 149 13.2
2009-06-25 13:47:49 51°15.231 2°53.949 156.1 11.4 148 12.5
2009-06-25 13:48:49 51°15.072 2°54.113 155.6 11.5 144 12
2009-06-25 13:49:49 51°14.913 2°54.273 155.1 11.4 146 12.2
2009-06-25 13:50:49 51°14.76 2°54.453 153.8 11.6 143 13.1
2009-06-25 13:51:49 51°14.604 2°54.632 150.1 11.7 141 13.1
2009-06-25 13:52:49 51°14.462 2°54.845 145.2 11.9 132 13.6
2009-06-25 13:53:49 51°14.339 2°55.088 130.6 11.1 131 13.4
2009-06-25 13:54:49 51°14.239 2°55.279 134.9 7.9 133 13.5
2009-06-25 13:55:49 51°14.131 2°55.402 154.5 8.1 154 13.5
2009-06-25 13:56:49 51°14.005 2°55.492 155.4 8.6 155 13.3
2009-06-25 13:57:49 51°13.888 2°55.578 156 6.6 156 13.3
2009-06-25 13:58:49 51°13.793 2°55.656 148.6 6.1 147 13.8
2009-06-25 13:59:49 51°13.731 2°55.751 130.7 4.5 131 14.6
2009-06-25 14:00:49 51°13.691 2°55.847 115.7 4.5 114 11.2
2009-06-25 14:01:49 51°13.668 2°55.934 111.8 2.4 110 10.2
2009-06-25 14:02:49 51°13.662 2°55.956 124.1 0.3 104 9.2